Hauptseite
METAR-TAF:

METAR-TAF

Flughäfen :

Ankara Esenboğa, Türkei

Flughafen Ankara-Esenboğa

Breite: 40-07N, Länge: 032-59E, Höhe: 953 m

Beobachtung

Neuester Wetterbericht von vor 20 Minuten, um 13:50 UTC
Wind 5 kt aus West, variierte zwischen Südwest und West/Nordwest
Temperatur 21°C
Luftfeuchtigkeit 17%
Luftdruck 1020 hPa
Sichtweite 10 km oder mehr
keine Wolken unter 1500 m und keine Kumulonimbus oder Gewitterwolken

METAR: LTAC 201350Z 27005KT 220V300 CAVOK 21/M05 Q1020 NOSIG RMK RWY21L 24006KT 200V270 RWY03L 25004KT 230V290 RWY21R 24006KT

Zeit: 17:10 (14:10 UTC)

Prognose

Neuester Wetterbericht von vor 3 Stunden und 30 Minuten, um 10:40 UTC
Gültige Prognose vom 20 um 12 UTC bis 21 um 12 UTC
Wind 2 kt aus unterschiedlichen Richtungen
Sichtweite 10 km oder mehr
keine Wolken unter 1500 m und keine Kumulonimbus oder Gewitterwolken

TAF: LTAC 201040Z 2012/2112 VRB02KT CAVOK

Wetterbeobachtungen und Prognosen von mehr als 4000 Flughäfen (METAR und TAF Bericht).

Die verfügbaren Stationen werden durch gelbe und rote Markierungen auf der Karte dargestellt.

Führen Sie die Maus auf sie, um den Namen der Station zu sehen.

Darauf klicken, um die Beobachtung von Wetterbeobachtungen und Prognosen zu sehen.

Um die Karte zu ändern : klicken Sie auf den grünen Tasten mit einem schwarzen Kreuz Zum Vergrößern, auf den grünen Button mit einem Gedankenstrich zu verkleinern, oder auf die grünen Pfeile für benachbarte Karten.


METAR-TAF: